createdAt,value
2017-12-29T00:02:25.928Z,1.80
2017-12-29T00:04:54.151Z,1.70
2017-12-29T00:07:21.594Z,1.70
2017-12-29T00:09:49.051Z,1.70
2017-12-29T00:12:17.242Z,1.70
2017-12-29T00:14:44.699Z,1.70
2017-12-29T00:17:12.139Z,1.70
2017-12-29T00:19:39.591Z,1.70
2017-12-29T00:22:07.047Z,1.60
2017-12-29T00:24:35.284Z,1.70
2017-12-29T00:27:03.479Z,1.70
2017-12-29T00:29:30.918Z,1.70
2017-12-29T00:31:58.501Z,1.70
2017-12-29T00:34:25.992Z,1.70
2017-12-29T00:36:54.187Z,1.70
2017-12-29T00:39:21.611Z,1.60
2017-12-29T00:41:49.118Z,1.70
2017-12-29T00:44:20.075Z,1.70
2017-12-29T00:46:47.534Z,1.60
2017-12-29T00:49:15.733Z,1.60
2017-12-29T00:51:43.189Z,1.60
2017-12-29T00:54:11.417Z,1.60
2017-12-29T00:56:38.855Z,1.50
2017-12-29T00:59:07.091Z,1.60
2017-12-29T01:01:34.564Z,1.50
2017-12-29T01:04:02.012Z,1.60
2017-12-29T01:06:30.203Z,1.60
2017-12-29T01:08:57.647Z,1.60
2017-12-29T01:11:25.096Z,1.60
2017-12-29T01:13:52.563Z,1.50
2017-12-29T01:16:20.140Z,1.50
2017-12-29T01:18:47.613Z,1.50
2017-12-29T01:21:15.069Z,1.50
2017-12-29T01:23:42.540Z,1.50
2017-12-29T01:26:10.192Z,1.50
2017-12-29T01:28:37.627Z,1.50
2017-12-29T01:31:05.081Z,1.40
2017-12-29T01:33:32.519Z,1.50
2017-12-29T01:36:00.760Z,1.50
2017-12-29T01:38:28.227Z,1.50
2017-12-29T01:40:55.694Z,1.50
2017-12-29T01:43:23.203Z,1.50
2017-12-29T01:45:50.663Z,1.40
2017-12-29T01:48:18.106Z,1.40
2017-12-29T01:50:46.795Z,1.50
2017-12-29T01:53:15.011Z,1.50
2017-12-29T01:55:42.443Z,1.40
2017-12-29T01:58:09.959Z,1.50
2017-12-29T02:00:37.394Z,1.40
2017-12-29T02:03:04.857Z,1.40
2017-12-29T02:05:32.407Z,1.40
2017-12-29T02:07:59.863Z,1.40
2017-12-29T02:10:27.283Z,1.50
2017-12-29T02:12:54.741Z,1.50
2017-12-29T02:15:22.191Z,1.40
2017-12-29T02:17:49.699Z,1.40
2017-12-29T02:20:17.143Z,1.30
2017-12-29T02:22:44.598Z,1.30
2017-12-29T02:25:12.802Z,1.30
2017-12-29T02:27:40.274Z,1.30
2017-12-29T02:30:07.731Z,1.30
2017-12-29T02:32:35.967Z,1.30
2017-12-29T02:35:03.425Z,1.30
2017-12-29T02:37:30.871Z,1.20
2017-12-29T02:39:59.813Z,1.10
2017-12-29T02:42:27.268Z,1.10
2017-12-29T02:44:54.709Z,1.10
2017-12-29T02:47:22.148Z,1.20
2017-12-29T02:49:49.594Z,1.20
2017-12-29T02:52:17.727Z,1.10
2017-12-29T02:54:45.166Z,1.10
2017-12-29T02:57:12.626Z,1.10
2017-12-29T02:59:40.100Z,1.00
2017-12-29T03:02:08.456Z,1.00
2017-12-29T03:04:35.904Z,0.90
2017-12-29T03:07:03.970Z,0.90
2017-12-29T03:09:31.431Z,0.90
2017-12-29T03:11:59.663Z,0.80
2017-12-29T03:14:27.107Z,0.80
2017-12-29T03:16:54.573Z,0.80
2017-12-29T03:19:22.220Z,0.80
2017-12-29T03:21:49.799Z,0.90
2017-12-29T03:24:17.279Z,0.90
2017-12-29T03:26:45.561Z,0.80
2017-12-29T03:29:13.016Z,0.80
2017-12-29T03:31:40.543Z,0.80
2017-12-29T03:34:08.795Z,0.80
2017-12-29T03:36:36.274Z,0.80
2017-12-29T03:39:03.735Z,0.80
2017-12-29T03:41:35.166Z,0.80
2017-12-29T03:44:02.723Z,0.70
2017-12-29T03:46:30.938Z,0.80
2017-12-29T03:48:58.378Z,0.80
2017-12-29T03:51:26.601Z,0.80
2017-12-29T03:53:54.052Z,0.80
2017-12-29T03:56:22.257Z,0.70
2017-12-29T03:58:49.745Z,0.70
2017-12-29T04:01:17.991Z,0.80
2017-12-29T04:03:45.470Z,0.80
2017-12-29T04:06:12.903Z,0.80
2017-12-29T04:08:40.354Z,0.80
2017-12-29T04:11:12.679Z,0.80
2017-12-29T04:13:40.098Z,0.90
2017-12-29T04:16:08.333Z,0.90
2017-12-29T04:18:35.780Z,0.80
2017-12-29T04:21:03.251Z,0.90
2017-12-29T04:23:30.717Z,0.90
2017-12-29T04:26:00.145Z,0.90
2017-12-29T04:28:27.584Z,0.90
2017-12-29T04:30:55.055Z,0.80
2017-12-29T04:33:22.509Z,0.80
2017-12-29T04:35:49.988Z,0.80
2017-12-29T04:38:17.450Z,0.90
2017-12-29T04:40:44.882Z,0.80
2017-12-29T04:43:13.927Z,0.90
2017-12-29T04:45:41.399Z,0.90
2017-12-29T04:48:08.886Z,0.90
2017-12-29T04:50:36.345Z,0.90
2017-12-29T04:53:03.830Z,1.00
2017-12-29T04:55:31.276Z,1.00
2017-12-29T04:57:59.515Z,1.00
2017-12-29T05:00:27.384Z,1.00
2017-12-29T05:02:54.950Z,1.00
2017-12-29T05:05:22.391Z,1.10
2017-12-29T05:07:50.615Z,1.00
2017-12-29T05:10:18.064Z,1.00
2017-12-29T05:12:46.321Z,1.10
2017-12-29T05:15:14.403Z,1.10
2017-12-29T05:17:41.967Z,1.10
2017-12-29T05:20:09.435Z,1.20
2017-12-29T05:22:37.092Z,1.20
2017-12-29T05:25:04.544Z,1.20
2017-12-29T05:27:32.814Z,1.20
2017-12-29T05:30:00.279Z,1.20
2017-12-29T05:32:27.715Z,1.20
2017-12-29T05:34:55.180Z,1.10
2017-12-29T05:37:22.643Z,1.10
2017-12-29T05:39:50.851Z,1.10
2017-12-29T05:42:18.310Z,1.00
2017-12-29T05:44:48.088Z,1.10
2017-12-29T05:47:15.540Z,1.00
2017-12-29T05:49:43.007Z,1.10
2017-12-29T05:52:10.459Z,1.00
2017-12-29T05:54:38.750Z,1.00
2017-12-29T05:57:07.475Z,1.10
2017-12-29T05:59:34.906Z,1.10
2017-12-29T06:02:02.384Z,1.00
2017-12-29T06:04:29.801Z,1.10
2017-12-29T06:06:57.289Z,1.10
2017-12-29T06:09:24.885Z,1.20
2017-12-29T06:11:52.322Z,1.20
2017-12-29T06:14:19.765Z,1.20
2017-12-29T06:16:47.211Z,1.20
2017-12-29T06:19:14.678Z,1.30
2017-12-29T06:21:42.187Z,1.30
2017-12-29T06:24:09.655Z,1.30
2017-12-29T06:26:37.127Z,1.40
2017-12-29T06:29:04.591Z,1.40
2017-12-29T06:31:32.152Z,1.40
2017-12-29T06:34:00.400Z,1.40
2017-12-29T06:36:27.847Z,1.40
2017-12-29T06:38:55.315Z,1.50
2017-12-29T06:41:27.154Z,1.50
2017-12-29T06:43:54.635Z,1.50
2017-12-29T06:46:22.117Z,1.60
2017-12-29T06:48:49.588Z,1.70
2017-12-29T06:51:17.083Z,1.70
2017-12-29T06:53:44.679Z,1.90
2017-12-29T06:56:12.119Z,1.90
2017-12-29T06:58:39.571Z,2.00
2017-12-29T07:01:07.665Z,2.00
2017-12-29T07:03:35.132Z,2.10
2017-12-29T07:06:02.589Z,2.10
2017-12-29T07:08:30.816Z,2.00
2017-12-29T07:10:58.376Z,2.00
2017-12-29T07:13:25.833Z,2.00
2017-12-29T07:15:53.288Z,2.00
2017-12-29T07:18:20.758Z,1.90
2017-12-29T07:20:48.224Z,2.00
2017-12-29T07:23:15.678Z,2.00
2017-12-29T07:25:47.268Z,1.90
2017-12-29T07:28:14.848Z,1.90
2017-12-29T07:30:42.442Z,2.00
2017-12-29T07:33:10.039Z,2.00
2017-12-29T07:35:38.528Z,2.00
2017-12-29T07:38:10.764Z,2.10
2017-12-29T07:40:38.648Z,2.10
2017-12-29T07:43:06.142Z,2.10
2017-12-29T07:45:33.634Z,2.10
2017-12-29T07:48:01.100Z,2.10
2017-12-29T07:50:28.573Z,2.10
2017-12-29T07:52:56.036Z,2.10
2017-12-29T07:55:23.479Z,2.10
2017-12-29T07:57:50.988Z,2.10
2017-12-29T08:00:18.526Z,2.20
2017-12-29T08:02:46.014Z,2.20
2017-12-29T08:05:13.479Z,2.30
2017-12-29T08:07:40.909Z,2.30
2017-12-29T08:10:08.459Z,2.30
2017-12-29T08:12:35.967Z,2.30
2017-12-29T08:15:03.420Z,2.40
2017-12-29T08:17:30.887Z,2.40
2017-12-29T08:19:58.358Z,2.40
2017-12-29T08:22:25.804Z,2.30
2017-12-29T08:24:53.273Z,2.40
2017-12-29T08:37:00.784Z,2.30
2017-12-29T08:39:28.311Z,2.30
2017-12-29T08:41:55.838Z,2.40
2017-12-29T08:44:23.529Z,2.50
2017-12-29T08:46:51.081Z,2.60
2017-12-29T08:49:18.522Z,2.50
2017-12-29T08:51:45.995Z,2.40
2017-12-29T08:54:13.495Z,2.50
2017-12-29T08:56:40.928Z,2.60
2017-12-29T08:59:08.387Z,2.60
2017-12-29T09:01:36.595Z,2.60
2017-12-29T09:04:04.375Z,2.60
2017-12-29T09:06:31.815Z,2.70
2017-12-29T09:08:59.287Z,2.70
2017-12-29T09:11:26.743Z,2.60
2017-12-29T09:13:56.350Z,2.60
2017-12-29T09:16:23.898Z,2.80
2017-12-29T09:18:51.350Z,2.70
2017-12-29T09:21:19.610Z,2.70
2017-12-29T09:23:47.067Z,2.70
2017-12-29T09:26:15.131Z,2.80
2017-12-29T09:28:42.566Z,2.90
2017-12-29T09:31:10.100Z,3.00
2017-12-29T09:33:37.522Z,3.00
2017-12-29T09:36:05.555Z,3.10
2017-12-29T09:38:33.065Z,3.30
2017-12-29T09:41:00.519Z,3.20
2017-12-29T09:43:27.988Z,3.20
2017-12-29T09:45:55.503Z,3.20
2017-12-29T09:48:22.943Z,3.20
2017-12-29T09:50:50.486Z,3.30
2017-12-29T09:53:17.919Z,3.30
2017-12-29T09:55:45.419Z,3.30
2017-12-29T09:58:13.375Z,3.30
2017-12-29T10:00:40.835Z,3.30
2017-12-29T10:03:08.384Z,3.30
2017-12-29T10:05:35.939Z,3.30
2017-12-29T10:08:04.188Z,3.30
2017-12-29T10:10:31.614Z,3.30
2017-12-29T10:12:59.107Z,3.30
2017-12-29T10:15:26.935Z,3.30
2017-12-29T10:17:54.405Z,3.50
2017-12-29T10:20:21.889Z,3.40
2017-12-29T10:22:49.320Z,3.50
2017-12-29T10:25:16.807Z,3.60
2017-12-29T10:27:44.283Z,3.50
2017-12-29T10:30:11.728Z,3.60
2017-12-29T10:32:39.189Z,3.80
2017-12-29T10:35:07.407Z,3.90
2017-12-29T10:37:34.852Z,3.90
2017-12-29T10:40:03.095Z,3.90
2017-12-29T10:42:31.155Z,3.80
2017-12-29T10:44:58.616Z,3.80
2017-12-29T10:47:26.047Z,3.80
2017-12-29T10:49:53.503Z,3.80
2017-12-29T10:52:21.040Z,3.80
2017-12-29T10:54:49.365Z,3.80
2017-12-29T10:57:17.534Z,3.70
2017-12-29T10:59:45.003Z,3.70
2017-12-29T11:02:13.229Z,3.50
2017-12-29T11:04:40.682Z,3.40
2017-12-29T11:07:08.114Z,3.30
2017-12-29T11:09:35.569Z,3.30
2017-12-29T11:12:03.101Z,3.30
2017-12-29T11:14:31.308Z,3.40
2017-12-29T11:16:58.746Z,3.40
2017-12-29T11:19:26.249Z,3.40
2017-12-29T11:21:53.688Z,3.30
2017-12-29T11:24:21.123Z,3.30
2017-12-29T11:26:48.611Z,3.30
2017-12-29T11:29:16.041Z,3.40
2017-12-29T11:31:43.486Z,3.40
2017-12-29T11:34:10.936Z,3.40
2017-12-29T11:36:39.010Z,3.30
2017-12-29T11:39:06.477Z,3.40
2017-12-29T11:41:33.944Z,3.60
2017-12-29T11:44:01.423Z,4.60
2017-12-29T11:46:28.910Z,4.90
2017-12-29T11:48:56.360Z,4.90
2017-12-29T11:51:23.824Z,5.00
2017-12-29T11:53:52.065Z,5.00
2017-12-29T11:56:19.506Z,5.00
2017-12-29T11:58:47.079Z,4.90
2017-12-29T12:01:15.279Z,4.30
2017-12-29T12:03:42.736Z,4.30
2017-12-29T12:06:10.953Z,4.20
2017-12-29T12:08:38.396Z,4.20
2017-12-29T12:11:06.615Z,4.50
2017-12-29T12:13:34.055Z,4.50
2017-12-29T12:16:02.272Z,4.30
2017-12-29T12:18:29.706Z,4.30
2017-12-29T12:20:57.182Z,4.20
2017-12-29T12:23:24.661Z,4.20
2017-12-29T12:25:52.119Z,4.10
2017-12-29T12:28:19.577Z,4.00
2017-12-29T12:30:47.007Z,4.10
2017-12-29T12:33:15.267Z,3.90
2017-12-29T12:35:42.718Z,3.80
2017-12-29T12:38:10.261Z,3.90
2017-12-29T12:40:37.710Z,3.90
2017-12-29T12:43:05.947Z,4.00
2017-12-29T12:45:33.375Z,3.90
2017-12-29T12:48:01.620Z,4.00
2017-12-29T12:50:29.106Z,4.00
2017-12-29T12:52:56.567Z,4.10
2017-12-29T12:55:24.026Z,3.90
2017-12-29T12:57:51.494Z,3.90
2017-12-29T13:00:18.936Z,3.80
2017-12-29T13:02:46.394Z,3.80
2017-12-29T13:05:13.841Z,3.90
2017-12-29T13:07:41.336Z,4.00
2017-12-29T13:10:08.812Z,3.90
2017-12-29T13:12:36.263Z,4.00
2017-12-29T13:15:03.746Z,4.00
2017-12-29T13:17:31.315Z,3.90
2017-12-29T13:19:58.795Z,4.00
2017-12-29T13:22:26.255Z,4.00
2017-12-29T13:24:53.713Z,3.90
2017-12-29T13:27:21.934Z,3.90
2017-12-29T13:29:49.396Z,3.90
2017-12-29T13:32:16.855Z,3.90
2017-12-29T13:34:44.364Z,3.90
2017-12-29T13:37:11.834Z,3.90
2017-12-29T13:39:39.287Z,3.90
2017-12-29T13:42:06.811Z,3.90
2017-12-29T13:44:34.358Z,4.00
2017-12-29T13:47:01.819Z,4.00
2017-12-29T13:49:29.251Z,4.00
2017-12-29T13:51:56.713Z,4.00
2017-12-29T13:54:24.159Z,4.00
2017-12-29T13:56:51.615Z,4.00
2017-12-29T13:59:19.079Z,4.00
2017-12-29T14:01:47.295Z,4.00
2017-12-29T14:04:14.763Z,4.00
2017-12-29T14:06:42.220Z,4.00
2017-12-29T14:09:10.452Z,4.10
2017-12-29T14:11:37.894Z,4.00
2017-12-29T14:14:05.384Z,4.10
2017-12-29T14:16:32.808Z,4.10
2017-12-29T14:19:00.320Z,4.10
2017-12-29T14:21:27.766Z,4.20
2017-12-29T14:23:55.993Z,4.20
2017-12-29T14:26:23.441Z,4.20
2017-12-29T14:28:51.674Z,4.10
2017-12-29T14:31:19.135Z,4.20
2017-12-29T14:33:50.326Z,4.20
2017-12-29T14:36:17.761Z,4.30
2017-12-29T14:38:45.221Z,4.30
2017-12-29T14:41:13.441Z,4.30
2017-12-29T14:43:40.872Z,4.30
2017-12-29T14:46:08.368Z,4.30
2017-12-29T14:48:36.571Z,4.20
2017-12-29T14:51:04.027Z,4.20
2017-12-29T14:53:32.243Z,4.10
2017-12-29T14:55:59.699Z,4.10
2017-12-29T14:58:27.929Z,4.10
2017-12-29T15:00:55.442Z,4.00
2017-12-29T15:03:22.879Z,4.10
2017-12-29T15:05:50.319Z,4.10
2017-12-29T15:08:18.562Z,4.10
2017-12-29T15:10:46.014Z,4.10
2017-12-29T15:13:13.436Z,4.10
2017-12-29T15:15:40.991Z,4.00
2017-12-29T15:18:09.289Z,4.10
2017-12-29T15:20:39.610Z,4.10
2017-12-29T15:23:07.143Z,4.00
2017-12-29T15:25:35.350Z,4.00
2017-12-29T15:28:02.849Z,4.00
2017-12-29T15:30:30.408Z,4.00
2017-12-29T15:32:58.463Z,4.00
2017-12-29T15:35:26.664Z,3.90
2017-12-29T15:37:54.900Z,3.90
2017-12-29T15:40:22.456Z,3.90
2017-12-29T15:42:49.920Z,4.00
2017-12-29T15:45:17.379Z,4.10
2017-12-29T15:47:45.582Z,3.90
2017-12-29T15:50:13.814Z,3.90
2017-12-29T15:52:41.239Z,3.90
2017-12-29T15:55:09.455Z,3.80
2017-12-29T15:57:36.914Z,3.80
2017-12-29T16:00:05.142Z,3.70
2017-12-29T16:02:33.506Z,3.70
2017-12-29T16:05:01.013Z,3.60
2017-12-29T16:07:28.442Z,3.50
2017-12-29T16:09:56.674Z,3.20
2017-12-29T16:12:24.129Z,3.20
2017-12-29T16:14:51.565Z,3.30
2017-12-29T16:17:19.014Z,3.20
2017-12-29T16:19:46.579Z,3.00
2017-12-29T16:22:14.042Z,2.70
2017-12-29T16:24:41.475Z,2.70
2017-12-29T16:27:08.911Z,2.60
2017-12-29T16:29:36.392Z,2.50
2017-12-29T16:32:03.851Z,2.30
2017-12-29T16:34:31.284Z,2.30
2017-12-29T16:36:58.725Z,2.40
2017-12-29T16:39:26.171Z,2.40
2017-12-29T16:41:54.422Z,2.20
2017-12-29T16:44:22.644Z,2.00
2017-12-29T16:46:50.071Z,2.00
2017-12-29T16:49:17.604Z,1.90
2017-12-29T16:51:45.067Z,1.80
2017-12-29T16:54:12.532Z,1.60
2017-12-29T16:56:39.980Z,1.60
2017-12-29T16:59:07.513Z,1.60
2017-12-29T17:01:35.028Z,1.50
2017-12-29T17:04:02.542Z,1.40
2017-12-29T17:06:29.992Z,1.50
2017-12-29T17:08:58.196Z,1.40
2017-12-29T17:11:26.438Z,1.40
2017-12-29T17:13:53.896Z,1.40
2017-12-29T17:16:21.357Z,1.40
2017-12-29T17:18:49.321Z,1.50
2017-12-29T17:21:17.552Z,1.40
2017-12-29T17:23:44.986Z,1.40
2017-12-29T17:26:13.199Z,1.40
2017-12-29T17:28:40.700Z,1.40
2017-12-29T17:31:08.156Z,1.40
2017-12-29T17:33:35.598Z,1.40
2017-12-29T17:36:03.042Z,1.50
2017-12-29T17:38:30.509Z,1.40
2017-12-29T17:40:57.963Z,1.50
2017-12-29T17:43:25.431Z,1.60
2017-12-29T17:45:52.875Z,1.50
2017-12-29T17:48:21.657Z,1.60
2017-12-29T17:50:49.196Z,1.60
2017-12-29T17:53:16.654Z,1.60
2017-12-29T17:55:44.091Z,1.60
2017-12-29T17:58:12.314Z,1.50
2017-12-29T18:00:39.747Z,1.40
2017-12-29T18:03:07.219Z,1.40
2017-12-29T18:05:34.758Z,1.50
2017-12-29T18:08:02.187Z,1.60
2017-12-29T18:10:30.414Z,1.60
2017-12-29T18:12:57.862Z,1.60
2017-12-29T18:15:26.083Z,1.60
2017-12-29T18:17:53.568Z,1.60
2017-12-29T18:20:21.040Z,1.70
2017-12-29T18:22:48.462Z,1.70
2017-12-29T18:25:16.371Z,1.70
2017-12-29T18:27:43.827Z,1.70
2017-12-29T18:30:12.553Z,1.70
2017-12-29T18:32:39.983Z,1.60
2017-12-29T18:35:07.466Z,1.70
2017-12-29T18:37:34.907Z,1.60
2017-12-29T18:40:02.454Z,1.60
2017-12-29T18:42:29.911Z,1.60
2017-12-29T18:44:58.111Z,1.50
2017-12-29T18:47:26.325Z,1.50
2017-12-29T18:49:54.600Z,1.50
2017-12-29T18:52:22.067Z,1.60
2017-12-29T18:54:50.278Z,1.50
2017-12-29T18:57:17.735Z,1.50
2017-12-29T18:59:45.942Z,1.60
2017-12-29T19:02:13.594Z,1.60
2017-12-29T19:04:41.067Z,1.70
2017-12-29T19:07:08.487Z,1.70
2017-12-29T19:09:35.945Z,1.70
2017-12-29T19:12:03.386Z,1.60
2017-12-29T19:14:30.839Z,1.70
2017-12-29T19:16:58.318Z,1.60
2017-12-29T19:19:25.775Z,1.70
2017-12-29T19:21:53.239Z,1.70
2017-12-29T19:24:20.695Z,1.60
2017-12-29T19:26:48.158Z,1.60
2017-12-29T19:29:16.370Z,1.60
2017-12-29T19:31:43.825Z,1.60
2017-12-29T19:34:16.078Z,1.60
2017-12-29T19:36:43.534Z,1.60
2017-12-29T19:39:10.979Z,1.70
2017-12-29T19:41:38.636Z,1.60
2017-12-29T19:44:06.859Z,1.60
2017-12-29T19:46:34.418Z,1.60
2017-12-29T19:49:01.850Z,1.60
2017-12-29T19:51:29.329Z,1.60
2017-12-29T19:53:56.767Z,1.70
2017-12-29T19:56:24.222Z,1.80
2017-12-29T19:58:51.684Z,1.80
2017-12-29T20:01:19.142Z,1.80
2017-12-29T20:03:47.357Z,1.80
2017-12-29T20:06:18.583Z,1.80
2017-12-29T20:08:46.040Z,1.80
2017-12-29T20:11:13.490Z,1.90
2017-12-29T20:13:40.919Z,1.90
2017-12-29T20:16:09.193Z,1.90
2017-12-29T20:18:36.760Z,1.90
2017-12-29T20:21:04.224Z,1.90
2017-12-29T20:23:31.694Z,1.80
2017-12-29T20:25:59.155Z,1.90
2017-12-29T20:28:26.617Z,1.90
2017-12-29T20:30:54.067Z,1.90
2017-12-29T20:33:22.311Z,1.90
2017-12-29T20:35:49.774Z,1.90
2017-12-29T20:38:17.235Z,1.80
2017-12-29T20:40:44.701Z,1.80
2017-12-29T20:43:12.183Z,1.90
2017-12-29T20:45:40.530Z,1.80
2017-12-29T20:48:08.011Z,1.90
2017-12-29T20:50:35.479Z,1.80
2017-12-29T20:53:02.925Z,1.80
2017-12-29T20:55:30.366Z,1.80
2017-12-29T20:57:57.836Z,1.80
2017-12-29T21:00:26.058Z,1.80
2017-12-29T21:02:53.746Z,1.80
2017-12-29T21:05:21.196Z,1.80
2017-12-29T21:07:48.652Z,1.80
2017-12-29T21:10:16.896Z,1.70
2017-12-29T21:12:44.362Z,1.70
2017-12-29T21:15:11.818Z,1.70
2017-12-29T21:17:39.348Z,1.70
2017-12-29T21:20:06.781Z,1.60
2017-12-29T21:22:34.240Z,1.60
2017-12-29T21:25:02.210Z,1.60
2017-12-29T21:27:30.432Z,1.50
2017-12-29T21:29:57.886Z,1.50
2017-12-29T21:32:25.387Z,1.50
2017-12-29T21:34:52.846Z,1.50
2017-12-29T21:37:20.300Z,1.30
2017-12-29T21:39:49.071Z,1.40
2017-12-29T21:42:16.639Z,1.40
2017-12-29T21:44:44.114Z,1.40
2017-12-29T21:47:11.578Z,1.40
2017-12-29T21:49:39.111Z,1.40
2017-12-29T21:52:07.317Z,1.40
2017-12-29T21:54:34.843Z,1.40
2017-12-29T21:57:02.341Z,1.40
2017-12-29T21:59:30.572Z,1.40
2017-12-29T22:01:58.020Z,1.40
2017-12-29T22:04:26.272Z,1.40
2017-12-29T22:06:53.719Z,1.40
2017-12-29T22:09:21.187Z,1.50
2017-12-29T22:11:48.715Z,1.50
2017-12-29T22:31:24.906Z,1.60
2017-12-29T22:33:53.225Z,1.70
2017-12-29T22:41:28.133Z,1.70
2017-12-29T22:43:56.285Z,1.70
2017-12-29T22:46:24.519Z,1.80
2017-12-29T22:48:52.045Z,1.80
2017-12-29T22:51:19.495Z,1.90
2017-12-29T22:53:46.986Z,1.90
2017-12-29T22:56:14.438Z,1.90
2017-12-29T22:58:41.899Z,1.90
2017-12-29T23:01:09.367Z,1.90
2017-12-29T23:03:36.891Z,2.00
2017-12-29T23:06:04.342Z,2.10
2017-12-29T23:08:31.812Z,2.10
2017-12-29T23:10:59.287Z,2.10
2017-12-29T23:13:27.355Z,2.10
2017-12-29T23:15:54.799Z,2.10
2017-12-29T23:18:22.264Z,2.20
2017-12-29T23:20:49.714Z,2.20
2017-12-29T23:23:17.271Z,2.30
2017-12-29T23:25:44.718Z,2.20
2017-12-29T23:28:12.213Z,2.20
2017-12-29T23:30:39.646Z,2.30
2017-12-29T23:33:07.206Z,2.30
2017-12-29T23:35:34.655Z,2.30
2017-12-29T23:38:02.118Z,2.20
2017-12-29T23:40:29.572Z,2.20
2017-12-29T23:42:57.042Z,2.30
2017-12-29T23:45:24.575Z,2.20
2017-12-29T23:47:52.039Z,2.20
2017-12-29T23:50:19.505Z,2.20
2017-12-29T23:52:46.930Z,2.20
2017-12-29T23:55:14.402Z,2.10
2017-12-29T23:57:41.882Z,2.10
